createdAt,value
2023-02-20T00:00:40.712Z,84.07
2023-02-20T00:03:08.680Z,83.98
2023-02-20T00:05:35.939Z,83.22
2023-02-20T00:08:03.324Z,83.53
2023-02-20T00:10:30.224Z,84.01
2023-02-20T00:12:57.171Z,83.60
2023-02-20T00:15:24.211Z,83.04
2023-02-20T00:17:51.198Z,82.64
2023-02-20T00:20:21.400Z,83.18
2023-02-20T00:22:49.254Z,83.99
2023-02-20T00:25:17.740Z,83.19
2023-02-20T00:27:44.852Z,84.22
2023-02-20T00:30:21.336Z,84.04
2023-02-20T00:32:50.091Z,83.66
2023-02-20T00:35:18.435Z,82.96
2023-02-20T00:37:47.425Z,83.32
2023-02-20T00:40:15.488Z,83.20
2023-02-20T00:42:42.503Z,83.36
2023-02-20T00:45:10.868Z,83.11
2023-02-20T00:47:38.194Z,82.72
2023-02-20T00:50:06.947Z,83.44
2023-02-20T00:52:33.895Z,83.66
2023-02-20T00:55:00.890Z,82.99
2023-02-20T00:57:28.044Z,83.18
2023-02-20T00:59:55.227Z,83.32
2023-02-20T01:02:22.360Z,82.79
2023-02-20T01:04:49.772Z,82.94
2023-02-20T01:07:16.883Z,83.67
2023-02-20T01:09:43.854Z,82.58
2023-02-20T01:12:10.781Z,83.48
2023-02-20T01:14:37.878Z,82.90
2023-02-20T01:17:04.778Z,82.87
2023-02-20T01:19:31.810Z,83.61
2023-02-20T01:21:58.844Z,82.84
2023-02-20T01:24:26.621Z,82.88
2023-02-20T01:26:53.491Z,82.66
2023-02-20T01:29:20.630Z,81.45
2023-02-20T01:31:51.883Z,82.03
2023-02-20T01:34:20.648Z,81.94
2023-02-20T01:36:53.294Z,82.07
2023-02-20T01:39:23.626Z,82.31
2023-02-20T01:41:54.466Z,81.30
2023-02-20T01:44:24.945Z,81.38
2023-02-20T01:46:57.939Z,81.43
2023-02-20T01:49:44.095Z,82.14
2023-02-20T01:52:17.968Z,82.06
2023-02-20T01:54:52.936Z,81.70
2023-02-20T01:57:24.223Z,81.54
2023-02-20T01:59:56.105Z,81.34
2023-02-20T02:02:24.733Z,81.03
2023-02-20T02:04:52.009Z,81.57
2023-02-20T02:07:19.146Z,82.43
2023-02-20T02:10:04.039Z,81.25
2023-02-20T02:12:31.968Z,82.47
2023-02-20T02:14:59.067Z,81.24
2023-02-20T02:17:46.073Z,81.15
2023-02-20T02:20:31.199Z,81.66
2023-02-20T02:23:30.098Z,81.51
2023-02-20T02:26:18.956Z,81.38
2023-02-20T02:28:50.197Z,80.86
2023-02-20T02:31:55.065Z,81.01
2023-02-20T02:34:59.919Z,81.93
2023-02-20T02:37:58.001Z,81.39
2023-02-20T02:40:43.224Z,81.14
2023-02-20T02:43:20.113Z,81.48
2023-02-20T02:45:52.745Z,82.16
2023-02-20T02:48:34.901Z,80.99
2023-02-20T02:51:13.773Z,81.93
2023-02-20T02:53:40.754Z,81.76
2023-02-20T02:56:22.677Z,81.08
2023-02-20T02:58:52.031Z,82.02
2023-02-20T03:01:21.621Z,81.97
2023-02-20T03:03:53.870Z,82.28
2023-02-20T03:06:35.259Z,81.69
2023-02-20T03:09:13.413Z,82.32
2023-02-20T03:11:41.511Z,81.74
2023-02-20T03:14:38.673Z,81.99
2023-02-20T03:17:39.749Z,81.74
2023-02-20T03:20:12.253Z,80.98
2023-02-20T03:22:45.584Z,82.05
2023-02-20T03:25:27.248Z,81.54
2023-02-20T03:28:00.384Z,82.03
2023-02-20T03:30:49.116Z,82.06
2023-02-20T03:33:48.808Z,82.39
2023-02-20T03:37:00.893Z,82.90
2023-02-20T03:39:53.655Z,83.14
2023-02-20T03:42:42.060Z,82.33
2023-02-20T03:45:17.999Z,81.99
2023-02-20T03:47:48.251Z,82.81
2023-02-20T03:50:34.642Z,83.09
2023-02-20T03:53:02.501Z,82.32
2023-02-20T03:55:29.666Z,82.20
2023-02-20T03:58:05.506Z,82.59
2023-02-20T04:00:41.674Z,82.27
2023-02-20T04:03:16.759Z,83.00
2023-02-20T04:05:50.032Z,82.09
2023-02-20T04:08:30.813Z,81.95
2023-02-20T04:11:06.556Z,81.73
2023-02-20T04:13:34.254Z,82.48
2023-02-20T04:16:02.629Z,81.24
2023-02-20T04:18:30.806Z,82.29
2023-02-20T04:21:01.285Z,81.81
2023-02-20T04:23:37.732Z,81.20
2023-02-20T04:26:10.405Z,81.28
2023-02-20T04:28:40.811Z,82.20
2023-02-20T04:31:10.220Z,81.32
2023-02-20T04:33:38.074Z,81.44
2023-02-20T04:36:12.078Z,81.23
2023-02-20T04:38:39.375Z,80.65
2023-02-20T04:41:10.269Z,81.92
2023-02-20T04:43:37.173Z,81.30
2023-02-20T04:46:04.385Z,82.37
2023-02-20T04:48:32.155Z,81.73
2023-02-20T04:51:02.831Z,81.00
2023-02-20T04:53:30.153Z,80.93
2023-02-20T04:55:57.072Z,80.30
2023-02-20T04:58:25.920Z,80.84
2023-02-20T05:01:02.601Z,81.12
2023-02-20T05:03:29.561Z,81.07
2023-02-20T05:05:56.544Z,81.29
2023-02-20T05:08:23.544Z,81.27
2023-02-20T05:10:50.499Z,80.83
2023-02-20T05:13:17.415Z,81.11
2023-02-20T05:15:44.609Z,80.32
2023-02-20T05:18:11.622Z,79.86
2023-02-20T05:20:57.127Z,80.29
2023-02-20T05:23:24.025Z,79.86
2023-02-20T05:25:51.185Z,80.59
2023-02-20T05:28:18.144Z,79.30
2023-02-20T05:30:45.213Z,80.20
2023-02-20T05:33:12.173Z,80.14
2023-02-20T05:35:40.696Z,78.14
2023-02-20T05:38:07.675Z,79.05
2023-02-20T05:40:34.970Z,78.92
2023-02-20T05:43:01.950Z,78.42
2023-02-20T05:45:28.889Z,78.59
2023-02-20T05:47:55.820Z,78.95
2023-02-20T05:50:22.688Z,77.90
2023-02-20T05:52:49.670Z,78.72
2023-02-20T05:55:16.569Z,78.35
2023-02-20T05:57:43.568Z,79.23
2023-02-20T06:00:11.614Z,77.80
2023-02-20T06:02:41.828Z,78.94
2023-02-20T06:05:08.897Z,78.55
2023-02-20T06:07:36.267Z,77.13
2023-02-20T06:10:04.463Z,78.23
2023-02-20T06:12:31.855Z,78.20
2023-02-20T06:14:58.954Z,77.87
2023-02-20T06:17:26.332Z,78.37
2023-02-20T06:19:53.420Z,77.58
2023-02-20T06:22:20.465Z,76.62
2023-02-20T06:24:48.550Z,77.84
2023-02-20T06:27:16.488Z,77.03
2023-02-20T06:29:43.801Z,77.08
2023-02-20T06:32:11.007Z,77.20
2023-02-20T06:34:38.247Z,76.59
2023-02-20T06:37:05.783Z,76.06
2023-02-20T06:39:33.404Z,76.84
2023-02-20T06:42:00.265Z,75.62
2023-02-20T06:44:27.411Z,76.69
2023-02-20T06:46:54.775Z,76.12
2023-02-20T06:49:21.887Z,75.55
2023-02-20T06:51:48.826Z,75.75
2023-02-20T06:54:15.975Z,76.08
2023-02-20T06:56:42.874Z,75.64
2023-02-20T06:59:10.142Z,75.78
2023-02-20T07:01:41.060Z,75.10
2023-02-20T07:04:15.507Z,75.17
2023-02-20T07:06:42.619Z,74.23
2023-02-20T07:09:09.717Z,74.04
2023-02-20T07:11:36.789Z,74.61
2023-02-20T07:14:03.727Z,73.58
2023-02-20T07:16:31.450Z,73.74
2023-02-20T07:18:58.529Z,72.10
2023-02-20T07:21:25.705Z,71.76
2023-02-20T07:23:53.651Z,71.05
2023-02-20T07:26:26.679Z,72.45
2023-02-20T07:28:54.967Z,72.26
2023-02-20T07:31:22.437Z,72.16
2023-02-20T07:33:49.492Z,72.26
2023-02-20T07:36:16.948Z,72.61
2023-02-20T07:38:52.670Z,71.40
2023-02-20T07:41:19.730Z,70.83
2023-02-20T07:43:46.598Z,71.99
2023-02-20T07:46:13.833Z,72.24
2023-02-20T07:48:40.893Z,71.40
2023-02-20T07:51:07.806Z,70.95
2023-02-20T07:53:34.742Z,70.67
2023-02-20T07:56:01.700Z,71.05
2023-02-20T07:58:28.752Z,70.44
2023-02-20T08:00:55.772Z,71.23
2023-02-20T08:03:22.820Z,71.41
2023-02-20T08:05:50.172Z,71.01
2023-02-20T08:08:17.617Z,71.19
2023-02-20T08:10:44.648Z,71.20
2023-02-20T08:13:11.672Z,71.43
2023-02-20T08:15:38.604Z,71.19
2023-02-20T08:18:12.546Z,70.88
2023-02-20T08:20:42.927Z,70.55
2023-02-20T08:23:21.355Z,70.21
2023-02-20T08:25:48.299Z,70.08
2023-02-20T08:28:15.428Z,68.21
2023-02-20T08:30:42.384Z,69.98
2023-02-20T08:33:09.366Z,69.24
2023-02-20T08:35:36.987Z,68.92
2023-02-20T08:38:06.243Z,69.35
2023-02-20T08:40:33.674Z,68.53
2023-02-20T08:43:00.714Z,67.70
2023-02-20T08:45:27.633Z,68.34
2023-02-20T08:48:02.299Z,68.18
2023-02-20T08:50:29.466Z,68.66
2023-02-20T08:52:56.363Z,68.37
2023-02-20T08:55:23.337Z,68.08
2023-02-20T08:57:50.295Z,67.40
2023-02-20T09:00:19.157Z,67.25
2023-02-20T09:02:49.523Z,67.22
2023-02-20T09:05:18.053Z,67.23
2023-02-20T09:07:45.492Z,67.27
2023-02-20T09:10:12.705Z,65.95
2023-02-20T09:12:42.471Z,66.33
2023-02-20T09:15:13.091Z,65.82
2023-02-20T09:17:40.145Z,66.58
2023-02-20T09:20:09.977Z,65.79
2023-02-20T09:22:37.359Z,66.01
2023-02-20T09:25:05.344Z,63.86
2023-02-20T09:27:32.501Z,64.22
2023-02-20T09:29:59.438Z,64.77
2023-02-20T09:32:26.520Z,65.54
2023-02-20T09:34:53.492Z,64.33
2023-02-20T09:37:20.532Z,64.75
2023-02-20T09:39:47.518Z,65.96
2023-02-20T09:42:44.314Z,65.85
2023-02-20T09:45:17.470Z,64.69
2023-02-20T09:47:59.444Z,64.89
2023-02-20T09:50:39.083Z,64.46
2023-02-20T09:53:15.314Z,64.25
2023-02-20T09:55:43.898Z,63.18
2023-02-20T09:58:38.410Z,64.67
2023-02-20T10:01:06.942Z,64.22
2023-02-20T10:03:45.882Z,64.00
2023-02-20T10:06:19.157Z,63.97
2023-02-20T10:08:49.673Z,64.50
2023-02-20T10:11:45.540Z,62.44
2023-02-20T10:14:24.680Z,63.70
2023-02-20T10:17:22.663Z,63.89
2023-02-20T10:19:56.151Z,63.90
2023-02-20T10:22:58.500Z,62.92
2023-02-20T10:25:30.789Z,63.53
2023-02-20T10:28:06.390Z,63.89
2023-02-20T10:30:41.527Z,65.76
2023-02-20T10:33:33.350Z,65.01
2023-02-20T10:36:21.008Z,64.69
2023-02-20T10:38:54.869Z,65.07
2023-02-20T10:41:28.348Z,64.61
2023-02-20T10:44:08.104Z,65.21
2023-02-20T10:47:00.507Z,64.36
2023-02-20T10:49:30.441Z,64.53
2023-02-20T10:52:01.316Z,64.71
2023-02-20T10:54:51.568Z,63.92
2023-02-20T10:57:30.229Z,62.45
2023-02-20T11:00:11.227Z,62.87
2023-02-20T11:02:44.759Z,62.86
2023-02-20T11:05:16.651Z,63.45
2023-02-20T11:07:43.679Z,62.77
2023-02-20T11:10:11.105Z,62.51
2023-02-20T11:12:46.617Z,61.78
2023-02-20T11:15:18.150Z,61.81
2023-02-20T11:17:47.114Z,61.80
2023-02-20T11:20:41.600Z,62.16
2023-02-20T11:23:10.353Z,63.02
2023-02-20T11:25:39.433Z,63.71
2023-02-20T11:28:22.652Z,62.38
2023-02-20T11:31:22.207Z,61.97
2023-02-20T11:33:50.683Z,62.53
2023-02-20T11:36:31.277Z,62.75
2023-02-20T11:39:00.954Z,62.03
2023-02-20T11:41:32.634Z,63.91
2023-02-20T11:44:13.262Z,64.74
2023-02-20T11:46:40.591Z,63.80
2023-02-20T11:49:11.724Z,64.24
2023-02-20T11:51:47.018Z,63.68
2023-02-20T11:54:22.904Z,62.82
2023-02-20T11:57:20.520Z,62.86
2023-02-20T11:59:49.241Z,63.89
2023-02-20T12:02:16.177Z,63.70
2023-02-20T12:04:45.803Z,62.90
2023-02-20T12:07:51.675Z,63.23
2023-02-20T12:11:02.489Z,62.16
2023-02-20T12:13:31.965Z,62.36
2023-02-20T12:16:18.466Z,62.95
2023-02-20T12:18:48.553Z,63.33
2023-02-20T12:21:21.279Z,62.96
2023-02-20T12:24:06.777Z,63.56
2023-02-20T12:26:46.753Z,63.28
2023-02-20T12:29:28.922Z,63.26
2023-02-20T12:32:29.190Z,64.32
2023-02-20T12:35:21.181Z,63.25
2023-02-20T12:38:09.957Z,64.29
2023-02-20T12:41:09.147Z,64.59
2023-02-20T12:44:12.938Z,64.37
2023-02-20T12:47:03.079Z,63.99
2023-02-20T12:49:42.447Z,65.09
2023-02-20T12:52:18.161Z,65.31
2023-02-20T12:54:51.369Z,64.84
2023-02-20T12:57:40.457Z,65.38
2023-02-20T13:00:23.427Z,64.49
2023-02-20T13:02:56.961Z,65.35
2023-02-20T13:05:27.900Z,65.53
2023-02-20T13:08:05.255Z,64.72
2023-02-20T13:10:50.065Z,64.72
2023-02-20T13:13:17.838Z,65.45
2023-02-20T13:16:14.282Z,65.35
2023-02-20T13:18:54.396Z,66.71
2023-02-20T13:21:25.892Z,66.83
2023-02-20T13:23:53.527Z,66.72
2023-02-20T13:26:35.845Z,67.50
2023-02-20T13:29:33.076Z,66.64
2023-02-20T13:32:03.697Z,67.33
2023-02-20T13:34:40.338Z,67.67
2023-02-20T13:37:40.189Z,68.36
2023-02-20T13:40:28.595Z,68.59
2023-02-20T13:43:23.607Z,67.57
2023-02-20T13:46:15.059Z,67.42
2023-02-20T13:48:46.089Z,68.02
2023-02-20T13:51:19.822Z,67.50
2023-02-20T13:53:53.600Z,68.97
2023-02-20T13:56:24.248Z,68.26
2023-02-20T13:58:54.663Z,67.75
2023-02-20T14:01:21.919Z,68.22
2023-02-20T14:04:09.208Z,67.77
2023-02-20T14:06:58.164Z,68.69
2023-02-20T14:09:31.743Z,68.88
2023-02-20T14:12:12.456Z,68.26
2023-02-20T14:14:43.815Z,69.02
2023-02-20T14:17:21.097Z,69.89
2023-02-20T14:19:59.529Z,69.44
2023-02-20T14:22:34.268Z,69.04
2023-02-20T14:25:02.253Z,69.38
2023-02-20T14:27:33.195Z,69.64
2023-02-20T14:30:14.611Z,69.51
2023-02-20T14:32:59.776Z,69.11
2023-02-20T14:36:00.138Z,69.15
2023-02-20T14:39:14.350Z,70.67
2023-02-20T14:42:01.685Z,70.05
2023-02-20T14:44:29.726Z,70.26
2023-02-20T14:47:06.071Z,70.80
2023-02-20T14:49:33.041Z,70.86
2023-02-20T14:52:23.612Z,71.38
2023-02-20T14:55:02.420Z,71.56
2023-02-20T14:57:31.425Z,71.30
2023-02-20T15:00:16.884Z,71.55
2023-02-20T15:02:47.242Z,71.15
2023-02-20T15:05:19.278Z,71.83
2023-02-20T15:07:46.833Z,71.67
2023-02-20T15:10:53.873Z,71.72
2023-02-20T15:13:24.761Z,71.94
2023-02-20T15:16:03.918Z,72.23
2023-02-20T15:18:39.325Z,72.20
2023-02-20T15:21:06.893Z,72.50
2023-02-20T15:23:36.981Z,72.43
2023-02-20T15:26:30.062Z,72.51
2023-02-20T15:29:18.422Z,71.69
2023-02-20T15:31:47.179Z,72.47
2023-02-20T15:34:22.127Z,71.42
2023-02-20T15:36:49.778Z,71.68
2023-02-20T15:39:17.142Z,70.83
2023-02-20T15:41:45.402Z,70.74
2023-02-20T15:44:12.508Z,71.67
2023-02-20T15:46:39.876Z,71.97
2023-02-20T15:49:07.237Z,73.01
2023-02-20T15:51:39.278Z,73.23
2023-02-20T15:54:11.734Z,74.35
2023-02-20T15:56:38.813Z,73.01
2023-02-20T15:59:09.204Z,73.68
2023-02-20T16:01:36.225Z,74.14
2023-02-20T16:04:03.292Z,75.49
2023-02-20T16:06:30.309Z,74.85
2023-02-20T16:08:57.376Z,74.44
2023-02-20T16:11:28.288Z,74.72
2023-02-20T16:14:01.013Z,74.33
2023-02-20T16:16:35.086Z,75.23
2023-02-20T16:19:04.620Z,74.53
2023-02-20T16:21:31.732Z,74.98
2023-02-20T16:23:58.731Z,75.06
2023-02-20T16:26:30.782Z,75.14
2023-02-20T16:29:12.334Z,75.98
2023-02-20T16:31:54.378Z,74.81
2023-02-20T16:34:23.706Z,75.56
2023-02-20T16:36:51.713Z,76.07
2023-02-20T16:39:26.410Z,74.61
2023-02-20T16:41:55.424Z,75.35
2023-02-20T16:44:36.906Z,75.00
2023-02-20T16:47:04.021Z,74.75
2023-02-20T16:49:37.395Z,75.42
2023-02-20T16:52:17.720Z,75.14
2023-02-20T16:54:52.024Z,75.24
2023-02-20T16:57:21.660Z,75.72
2023-02-20T16:59:48.718Z,76.18
2023-02-20T17:02:25.063Z,75.22
2023-02-20T17:04:52.222Z,75.19
2023-02-20T17:07:19.653Z,75.50
2023-02-20T17:09:47.350Z,75.50
2023-02-20T17:12:17.620Z,76.18
2023-02-20T17:14:45.299Z,76.07
2023-02-20T17:17:14.067Z,76.07
2023-02-20T17:19:42.988Z,75.94
2023-02-20T17:22:10.893Z,76.18
2023-02-20T17:24:41.684Z,76.58
2023-02-20T17:27:10.531Z,76.32
2023-02-20T17:29:37.902Z,76.62
2023-02-20T17:32:05.067Z,75.88
2023-02-20T17:34:32.057Z,76.90
2023-02-20T17:36:59.405Z,77.26
2023-02-20T17:39:26.685Z,76.91
2023-02-20T17:41:56.866Z,76.56
2023-02-20T17:44:26.622Z,76.84
2023-02-20T17:46:55.108Z,77.29
2023-02-20T17:49:22.979Z,77.36
2023-02-20T17:52:03.841Z,77.19
2023-02-20T17:54:32.596Z,78.08
2023-02-20T17:57:00.565Z,78.02
2023-02-20T17:59:27.928Z,78.06
2023-02-20T18:01:55.244Z,77.38
2023-02-20T18:04:23.290Z,77.32
2023-02-20T18:06:50.570Z,77.57
2023-02-20T18:09:18.585Z,76.96
2023-02-20T18:11:46.257Z,77.19
2023-02-20T18:14:14.355Z,77.66
2023-02-20T18:16:41.614Z,77.81
2023-02-20T18:19:10.649Z,77.31
2023-02-20T18:21:40.648Z,77.50
2023-02-20T18:24:09.418Z,77.51
2023-02-20T18:26:36.735Z,77.88
2023-02-20T18:29:04.228Z,77.12
2023-02-20T18:31:31.209Z,77.92
2023-02-20T18:33:58.322Z,77.37
2023-02-20T18:36:25.560Z,77.55
2023-02-20T18:38:52.581Z,78.71
2023-02-20T18:41:20.579Z,77.65
2023-02-20T18:43:48.061Z,77.77
2023-02-20T18:46:27.778Z,77.92
2023-02-20T18:48:54.885Z,78.15
2023-02-20T18:51:37.076Z,77.66
2023-02-20T18:54:06.451Z,77.06
2023-02-20T18:56:33.584Z,77.45
2023-02-20T18:59:02.577Z,77.53
2023-02-20T19:01:29.896Z,76.27
2023-02-20T19:03:57.453Z,76.70
2023-02-20T19:06:34.342Z,77.18
2023-02-20T19:09:02.093Z,77.33
2023-02-20T19:11:29.820Z,76.83
2023-02-20T19:13:57.033Z,76.55
2023-02-20T19:16:24.433Z,76.97
2023-02-20T19:18:51.456Z,76.84
2023-02-20T19:21:20.048Z,76.49
2023-02-20T19:23:47.930Z,76.49
2023-02-20T19:26:16.019Z,76.23
2023-02-20T19:28:43.182Z,76.41
2023-02-20T19:31:12.024Z,74.96
2023-02-20T19:33:39.485Z,76.71
2023-02-20T19:36:09.952Z,76.36
2023-02-20T19:38:40.585Z,75.58
2023-02-20T19:41:07.568Z,75.55
2023-02-20T19:43:34.495Z,76.15
2023-02-20T19:46:01.515Z,76.18
2023-02-20T19:48:28.743Z,75.32
2023-02-20T19:50:56.893Z,76.46
2023-02-20T19:53:24.323Z,76.57
2023-02-20T19:55:54.531Z,74.78
2023-02-20T19:58:22.058Z,75.42
2023-02-20T20:00:49.325Z,74.75
2023-02-20T20:03:16.388Z,75.97
2023-02-20T20:05:43.264Z,75.76
2023-02-20T20:08:10.589Z,76.39
2023-02-20T20:10:37.694Z,75.78
2023-02-20T20:13:06.551Z,75.47
2023-02-20T20:15:34.705Z,76.00
2023-02-20T20:18:02.057Z,76.32
2023-02-20T20:20:31.960Z,76.69
2023-02-20T20:23:01.926Z,76.34
2023-02-20T20:25:29.253Z,76.40
2023-02-20T20:28:01.989Z,76.89
2023-02-20T20:30:31.824Z,76.09
2023-02-20T20:32:59.105Z,76.78
2023-02-20T20:35:27.719Z,76.88
2023-02-20T20:37:55.168Z,76.55
2023-02-20T20:40:24.125Z,75.71
2023-02-20T20:42:51.107Z,75.96
2023-02-20T20:45:18.888Z,76.46
2023-02-20T20:47:45.926Z,76.71
2023-02-20T20:50:22.596Z,75.44
2023-02-20T20:52:49.728Z,77.25
2023-02-20T20:55:16.919Z,76.90
2023-02-20T20:57:43.928Z,76.40
2023-02-20T21:00:24.258Z,76.84
2023-02-20T21:02:52.783Z,76.65
2023-02-20T21:05:21.562Z,76.35
2023-02-20T21:07:48.633Z,76.77
2023-02-20T21:10:15.735Z,76.82
2023-02-20T21:12:43.325Z,76.40
2023-02-20T21:15:12.301Z,75.72
2023-02-20T21:17:41.131Z,75.78
2023-02-20T21:20:16.436Z,76.33
2023-02-20T21:22:43.358Z,77.18
2023-02-20T21:25:10.669Z,76.75
2023-02-20T21:27:37.663Z,76.52
2023-02-20T21:30:05.529Z,76.68
2023-02-20T21:32:32.691Z,75.88
2023-02-20T21:34:59.931Z,76.87
2023-02-20T21:37:28.228Z,76.20
2023-02-20T21:39:55.228Z,74.75
2023-02-20T21:42:40.640Z,74.40
2023-02-20T21:45:07.766Z,76.12
2023-02-20T21:47:34.781Z,74.94
2023-02-20T21:50:01.772Z,75.98
2023-02-20T21:52:36.252Z,74.43
2023-02-20T21:55:08.434Z,74.36
2023-02-20T21:57:35.304Z,74.33
2023-02-20T22:00:03.101Z,73.60
2023-02-20T22:02:33.789Z,74.12
2023-02-20T22:05:00.909Z,72.56
2023-02-20T22:07:46.282Z,73.73
2023-02-20T22:10:32.046Z,73.73
2023-02-20T22:13:17.691Z,73.84
2023-02-20T22:16:03.152Z,73.91
2023-02-20T22:18:48.777Z,73.48
2023-02-20T22:21:41.749Z,74.63
2023-02-20T22:24:37.459Z,74.47
2023-02-20T22:27:28.064Z,74.70
2023-02-20T22:30:14.503Z,73.16
2023-02-20T22:33:00.090Z,74.46
2023-02-20T22:35:45.814Z,74.77
2023-02-20T22:38:31.508Z,73.69
2023-02-20T22:41:17.235Z,74.87
2023-02-20T22:44:02.956Z,74.02
2023-02-20T22:46:48.469Z,74.88
2023-02-20T22:49:33.853Z,74.73
2023-02-20T22:52:19.257Z,74.34
2023-02-20T22:55:06.015Z,73.25
2023-02-20T22:57:52.625Z,75.40
2023-02-20T23:00:38.880Z,75.44
2023-02-20T23:03:24.954Z,75.59
2023-02-20T23:06:17.994Z,73.85
2023-02-20T23:09:04.352Z,73.80
2023-02-20T23:11:55.083Z,74.38
2023-02-20T23:14:41.238Z,73.36
2023-02-20T23:17:35.747Z,74.09
2023-02-20T23:20:28.666Z,74.28
2023-02-20T23:23:14.273Z,73.81
2023-02-20T23:25:59.789Z,74.42
2023-02-20T23:28:45.765Z,74.76
2023-02-20T23:31:32.147Z,73.69
2023-02-20T23:34:18.439Z,74.27
2023-02-20T23:37:08.801Z,73.09
2023-02-20T23:39:54.710Z,74.08
2023-02-20T23:42:40.830Z,74.72
2023-02-20T23:45:27.429Z,75.20
2023-02-20T23:48:12.928Z,75.13
2023-02-20T23:50:58.787Z,74.94
2023-02-20T23:53:44.276Z,74.58
2023-02-20T23:56:29.970Z,73.82
2023-02-20T23:59:15.535Z,74.20
